Time;durP1;ratioP1;P1;durP2;ratioP2;P2;SDS_P1;SDS_P2;PMS_P1;PMS_P2;Temp;Humidity;BMP_temperature;BMP_pressure;BME280_temperature;BME280_humidity;BME280_pressure;Samples;Min_cycle;Max_cycle;Signal;HPM_P1;HPM_P2
2022/10/30 00:00:28;;;;;;;2.45;0.47;;;;;;;;;;4954554;29;20039;-87
2022/10/30 00:02:54;;;;;;;1.05;0.40;;;;;;;;;;4949838;28;20385;-88
2022/10/30 00:05:20;;;;;;;2.03;0.60;;;;;;;;;;4957376;28;20391;-86
2022/10/30 00:07:46;;;;;;;0.10;0.10;;;;;;;;;;4933703;29;20023;-87
2022/10/30 00:10:12;;;;;;;0.30;0.30;;;;;;;;;;4931500;29;20031;-90
2022/10/30 00:12:37;;;;;;;0.10;0.10;;;;;;;;;;4933500;29;20023;-88
2022/10/30 00:15:04;;;;;;;0.13;0.13;;;;;;;;;;4957517;29;20054;-88
2022/10/30 00:17:29;;;;;;;0.20;0.20;;;;;;;;;;4953636;28;20035;-89
2022/10/30 00:19:54;;;;;;;0.30;0.30;;;;;;;;;;4950631;28;20369;-88
2022/10/30 00:22:20;;;;;;;1.00;0.30;;;;;;;;;;4952865;28;20590;-88
2022/10/30 00:24:45;;;;;;;0.55;0.45;;;;;;;;;;4936772;29;20035;-87
2022/10/30 00:27:11;;;;;;;0.10;0.10;;;;;;;;;;4953015;28;20102;-88
2022/10/30 00:29:36;;;;;;;0.35;0.35;;;;;;;;;;4933291;29;20057;-87
2022/10/30 00:32:01;;;;;;;0.75;0.30;;;;;;;;;;4951044;28;20077;-88
2022/10/30 00:34:27;;;;;;;0.13;0.13;;;;;;;;;;4938754;29;20027;-89
2022/10/30 00:36:52;;;;;;;0.75;0.50;;;;;;;;;;4955833;29;20027;-88
2022/10/30 00:39:18;;;;;;;0.43;0.43;;;;;;;;;;4936831;29;20031;-89
2022/10/30 00:41:43;;;;;;;0.20;0.20;;;;;;;;;;4956229;29;20054;-88
2022/10/30 00:44:39;;;;;;;0.43;0.22;;;;;;;;;;4939480;29;20117;-88
2022/10/30 00:47:29;;;;;;;0.20;0.13;;;;;;;;;;4955553;29;20499;-88
2022/10/30 00:49:58;;;;;;;;;;;;;;;;;;4925054;29;20038;-89
2022/10/30 00:52:27;;;;;;;0.75;0.40;;;;;;;;;;4929573;29;20389;-89
2022/10/30 00:54:56;;;;;;;0.10;0.10;;;;;;;;;;4924014;29;20031;-88
2022/10/30 00:57:22;;;;;;;0.73;0.57;;;;;;;;;;4933403;29;20487;-88
2022/10/30 00:59:48;;;;;;;0.32;0.20;;;;;;;;;;4952403;29;20082;-88
2022/10/30 01:02:13;;;;;;;0.08;0.08;;;;;;;;;;4953957;28;20027;-88
2022/10/30 01:04:40;;;;;;;0.20;0.20;;;;;;;;;;4930424;29;20477;-91
2022/10/30 01:07:10;;;;;;;0.20;0.20;;;;;;;;;;4931401;28;20027;-88
2022/10/30 01:09:36;;;;;;;0.43;0.40;;;;;;;;;;4935994;29;20027;-90
2022/10/30 01:12:02;;;;;;;0.10;0.10;;;;;;;;;;4927852;29;20472;-87
2022/10/30 01:14:28;;;;;;;0.20;0.20;;;;;;;;;;4933392;29;20024;-88
2022/10/30 01:17:20;;;;;;;0.20;0.20;;;;;;;;;;4953621;29;20027;-88
2022/10/30 01:20:13;;;;;;;1.10;0.30;;;;;;;;;;4935641;29;20031;-90
2022/10/30 01:23:00;;;;;;;0.20;0.20;;;;;;;;;;4943640;28;20027;-89
2022/10/30 01:25:40;;;;;;;0.20;0.20;;;;;;;;;;4935301;29;20417;-89
2022/10/30 01:28:30;;;;;;;0.20;0.20;;;;;;;;;;4923228;29;20069;-88
2022/10/30 01:31:10;;;;;;;0.17;0.17;;;;;;;;;;4949907;29;20031;-89
2022/10/30 01:33:42;;;;;;;;;;;;;;;;;;4937630;29;20113;-88
2022/10/30 01:36:20;;;;;;;0.17;0.17;;;;;;;;;;4954528;28;19922;-87
2022/10/30 01:38:55;;;;;;;0.65;0.30;;;;;;;;;;4945586;28;20027;-87
2022/10/30 01:41:20;;;;;;;0.32;0.30;;;;;;;;;;4947669;29;20041;-86
2022/10/30 01:43:49;;;;;;;0.10;0.10;;;;;;;;;;4933785;29;20035;-86
2022/10/30 01:46:35;;;;;;;0.05;0.05;;;;;;;;;;4929168;29;20066;-86
2022/10/30 01:49:13;;;;;;;0.10;0.10;;;;;;;;;;4947281;29;20050;-87
2022/10/30 01:52:00;;;;;;;0.30;0.30;;;;;;;;;;4929607;28;20043;-87
2022/10/30 01:54:37;;;;;;;0.50;0.50;;;;;;;;;;4949709;28;20506;-88
2022/10/30 01:57:40;;;;;;;0.20;0.20;;;;;;;;;;4954468;28;20031;-89
2022/10/30 02:00:10;;;;;;;0.20;0.20;;;;;;;;;;4929049;29;20552;-88
2022/10/30 02:02:36;;;;;;;0.38;0.38;;;;;;;;;;4952500;29;20495;-90
2022/10/30 02:05:03;;;;;;;0.35;0.35;;;;;;;;;;4954479;29;20031;-89
2022/10/30 02:07:28;;;;;;;0.10;0.10;;;;;;;;;;4935552;29;20047;-86
2022/10/30 02:09:54;;;;;;;0.00;0.00;;;;;;;;;;4932373;29;20031;-87
2022/10/30 02:12:21;;;;;;;0.20;0.20;;;;;;;;;;4929299;29;20024;-91
2022/10/30 02:14:51;;;;;;;0.22;0.22;;;;;;;;;;4927324;29;20055;-85
2022/10/30 02:17:17;;;;;;;1.80;0.35;;;;;;;;;;4951362;28;20023;-86
2022/10/30 02:19:43;;;;;;;1.58;0.63;;;;;;;;;;4940383;29;20468;-86
2022/10/30 02:22:10;;;;;;;0.20;0.20;;;;;;;;;;4950536;28;20031;-86
2022/10/30 02:24:35;;;;;;;0.20;0.20;;;;;;;;;;4950827;29;20034;-85
2022/10/30 02:27:00;;;;;;;0.45;0.32;;;;;;;;;;4927999;28;20028;-87
2022/10/30 02:29:26;;;;;;;0.20;0.20;;;;;;;;;;4931759;29;20040;-85
2022/10/30 02:31:52;;;;;;;0.10;0.10;;;;;;;;;;4957928;28;20019;-88
2022/10/30 02:34:18;;;;;;;0.47;0.20;;;;;;;;;;4956970;29;20062;-86
2022/10/30 02:36:43;;;;;;;0.32;0.32;;;;;;;;;;4953386;28;20038;-86
2022/10/30 02:39:08;;;;;;;0.40;0.40;;;;;;;;;;4956760;29;20128;-86
2022/10/30 02:41:34;;;;;;;5.32;0.47;;;;;;;;;;4951592;28;20027;-87
2022/10/30 02:44:00;;;;;;;0.38;0.38;;;;;;;;;;4950136;28;20111;-87
2022/10/30 02:46:25;;;;;;;0.20;0.20;;;;;;;;;;4934557;29;20038;-87
2022/10/30 02:48:51;;;;;;;0.10;0.10;;;;;;;;;;4949558;28;20078;-87
2022/10/30 02:51:16;;;;;;;0.20;0.20;;;;;;;;;;4936598;29;20839;-88
2022/10/30 02:53:42;;;;;;;1.00;0.50;;;;;;;;;;4960134;28;20042;-87
2022/10/30 02:56:11;;;;;;;0.13;0.13;;;;;;;;;;4936418;29;20053;-87
2022/10/30 02:58:37;;;;;;;0.60;0.60;;;;;;;;;;4940288;28;20106;-87
2022/10/30 03:01:14;;;;;;;0.65;0.63;;;;;;;;;;4935995;29;20123;-88
2022/10/30 03:03:40;;;;;;;0.57;0.57;;;;;;;;;;4938623;29;20027;-89
2022/10/30 03:06:08;;;;;;;0.38;0.28;;;;;;;;;;4944705;28;20061;-87
2022/10/30 03:08:34;;;;;;;0.77;0.57;;;;;;;;;;4934338;29;20086;-88
2022/10/30 03:11:09;;;;;;;0.73;0.30;;;;;;;;;;4932196;29;20043;-86
2022/10/30 03:13:35;;;;;;;0.73;0.50;;;;;;;;;;4938255;29;20031;-88
2022/10/30 03:16:02;;;;;;;0.30;0.30;;;;;;;;;;4937714;29;20031;-84
2022/10/30 03:18:28;;;;;;;2.38;1.40;;;;;;;;;;4952652;28;20546;-87
2022/10/30 03:21:02;;;;;;;1.13;1.02;;;;;;;;;;4946808;29;20031;-87
2022/10/30 03:23:28;;;;;;;1.92;1.42;;;;;;;;;;4936438;29;20035;-86
2022/10/30 03:25:55;;;;;;;0.80;0.70;;;;;;;;;;4952950;28;20054;-87
2022/10/30 03:28:22;;;;;;;1.00;0.73;;;;;;;;;;4932029;29;20447;-86
2022/10/30 03:30:47;;;;;;;1.23;0.57;;;;;;;;;;4926205;29;20028;-86
2022/10/30 03:33:13;;;;;;;0.38;0.38;;;;;;;;;;4931345;29;20083;-85
2022/10/30 03:35:38;;;;;;;0.80;0.60;;;;;;;;;;4954191;28;20470;-85
2022/10/30 03:38:04;;;;;;;0.60;0.47;;;;;;;;;;4948030;28;20045;-86
2022/10/30 03:40:30;;;;;;;0.55;0.38;;;;;;;;;;4952919;29;20440;-86
2022/10/30 03:42:56;;;;;;;0.60;0.40;;;;;;;;;;4931576;29;20031;-84
2022/10/30 03:45:21;;;;;;;2.15;0.55;;;;;;;;;;4957253;28;20027;-84
2022/10/30 03:47:46;;;;;;;0.40;0.40;;;;;;;;;;4945400;28;20102;-85
2022/10/30 03:50:12;;;;;;;0.10;0.10;;;;;;;;;;4951195;28;20035;-87
2022/10/30 03:52:37;;;;;;;0.68;0.63;;;;;;;;;;4943978;28;20389;-83
2022/10/30 03:55:03;;;;;;;1.40;0.75;;;;;;;;;;4929182;29;20432;-85
2022/10/30 03:57:28;;;;;;;1.33;1.05;;;;;;;;;;4951681;28;20107;-87
2022/10/30 03:59:53;;;;;;;1.15;0.95;;;;;;;;;;4927877;28;20031;-85
2022/10/30 04:02:19;;;;;;;0.32;0.32;;;;;;;;;;4928385;29;20040;-86
2022/10/30 04:04:44;;;;;;;0.43;0.38;;;;;;;;;;4924098;29;20043;-84
2022/10/30 04:07:10;;;;;;;0.35;0.30;;;;;;;;;;4954243;29;20601;-86
2022/10/30 04:09:35;;;;;;;0.32;0.32;;;;;;;;;;4954555;28;20027;-85
2022/10/30 04:12:00;;;;;;;2.05;1.08;;;;;;;;;;4952227;29;20914;-86
2022/10/30 04:14:26;;;;;;;0.73;0.60;;;;;;;;;;4934746;29;20118;-86
2022/10/30 04:16:51;;;;;;;0.50;0.50;;;;;;;;;;4931452;29;20027;-86
2022/10/30 04:19:16;;;;;;;0.20;0.20;;;;;;;;;;4952587;28;20027;-87
2022/10/30 04:21:42;;;;;;;0.40;0.40;;;;;;;;;;4955332;28;20027;-87
2022/10/30 04:24:08;;;;;;;0.10;0.10;;;;;;;;;;4953005;28;20023;-89
2022/10/30 04:26:34;;;;;;;0.30;0.30;;;;;;;;;;4937079;29;20081;-88
2022/10/30 04:28:59;;;;;;;0.20;0.20;;;;;;;;;;4948076;28;20440;-86
2022/10/30 04:31:25;;;;;;;0.40;0.40;;;;;;;;;;4944047;29;20070;-85
2022/10/30 04:33:50;;;;;;;0.28;0.28;;;;;;;;;;4939049;28;20503;-85
2022/10/30 04:36:17;;;;;;;0.68;0.68;;;;;;;;;;4927089;29;20423;-85
2022/10/30 04:38:42;;;;;;;0.30;0.30;;;;;;;;;;4952317;28;20054;-88
2022/10/30 04:41:08;;;;;;;0.47;0.40;;;;;;;;;;4930123;29;20090;-86
2022/10/30 04:43:33;;;;;;;0.30;0.30;;;;;;;;;;4954415;29;20027;-87
2022/10/30 04:46:02;;;;;;;0.22;0.22;;;;;;;;;;4930071;29;20070;-88
2022/10/30 04:48:28;;;;;;;1.35;0.95;;;;;;;;;;4945739;28;20480;-87
2022/10/30 04:50:53;;;;;;;0.90;0.35;;;;;;;;;;4944935;29;20038;-86
2022/10/30 04:53:20;;;;;;;0.63;0.47;;;;;;;;;;4947123;28;20027;-86
2022/10/30 04:55:45;;;;;;;0.55;0.47;;;;;;;;;;4951744;28;20024;-87
2022/10/30 04:58:12;;;;;;;0.75;0.75;;;;;;;;;;4929876;29;20036;-88
2022/10/30 05:00:37;;;;;;;0.82;0.60;;;;;;;;;;4937064;28;21602;-87
2022/10/30 05:03:03;;;;;;;0.55;0.50;;;;;;;;;;4927676;29;20038;-85
2022/10/30 05:05:29;;;;;;;0.65;0.45;;;;;;;;;;4954140;29;20027;-87
2022/10/30 05:07:55;;;;;;;0.55;0.38;;;;;;;;;;4935245;29;20109;-86
2022/10/30 05:10:20;;;;;;;0.57;0.57;;;;;;;;;;4935928;29;20070;-87
2022/10/30 05:12:46;;;;;;;0.40;0.35;;;;;;;;;;4934514;28;20078;-87
2022/10/30 05:15:13;;;;;;;0.43;0.43;;;;;;;;;;4948227;29;20031;-88
2022/10/30 05:17:39;;;;;;;0.20;0.20;;;;;;;;;;4930865;29;20491;-89
2022/10/30 05:20:05;;;;;;;7.32;0.52;;;;;;;;;;4953720;29;20039;-88
2022/10/30 05:22:31;;;;;;;0.75;0.75;;;;;;;;;;4932518;29;20484;-89
2022/10/30 05:24:57;;;;;;;0.75;0.50;;;;;;;;;;4937039;29;20042;-87
2022/10/30 05:27:22;;;;;;;0.10;0.10;;;;;;;;;;4927459;29;20036;-89
2022/10/30 05:29:47;;;;;;;0.47;0.47;;;;;;;;;;4933846;29;20034;-88
2022/10/30 05:32:13;;;;;;;0.75;0.70;;;;;;;;;;4952167;28;20031;-88
2022/10/30 05:34:38;;;;;;;0.55;0.50;;;;;;;;;;4950513;28;20387;-90
2022/10/30 05:37:04;;;;;;;0.93;0.55;;;;;;;;;;4952603;28;20031;-88
2022/10/30 05:39:29;;;;;;;1.17;0.88;;;;;;;;;;4953871;29;20098;-89
2022/10/30 05:41:54;;;;;;;1.55;1.30;;;;;;;;;;4952580;29;20042;-89
2022/10/30 05:44:20;;;;;;;2.00;1.48;;;;;;;;;;4927520;29;20032;-90
2022/10/30 05:46:45;;;;;;;0.75;0.75;;;;;;;;;;4953173;29;20039;-89
2022/10/30 05:49:10;;;;;;;2.50;1.98;;;;;;;;;;4953461;28;20031;-89
2022/10/30 05:51:36;;;;;;;3.28;1.60;;;;;;;;;;4953644;29;20052;-88
2022/10/30 05:54:01;;;;;;;2.53;1.80;;;;;;;;;;4932678;29;20110;-88
2022/10/30 05:56:27;;;;;;;2.20;1.55;;;;;;;;;;4952655;29;20476;-85
2022/10/30 05:58:52;;;;;;;1.13;0.93;;;;;;;;;;4952456;29;20380;-89
2022/10/30 06:01:18;;;;;;;1.83;1.02;;;;;;;;;;4930184;29;20084;-89
2022/10/30 06:03:43;;;;;;;1.00;0.85;;;;;;;;;;4927896;29;20089;-89
2022/10/30 06:06:09;;;;;;;1.95;0.93;;;;;;;;;;4945467;29;20032;-90
2022/10/30 06:08:34;;;;;;;0.63;0.60;;;;;;;;;;4932554;29;20539;-90
2022/10/30 06:11:00;;;;;;;2.00;1.40;;;;;;;;;;4948527;29;20034;-89
2022/10/30 06:13:27;;;;;;;2.58;1.85;;;;;;;;;;4949610;29;20030;-89
2022/10/30 06:15:56;;;;;;;1.17;1.08;;;;;;;;;;4951219;29;20031;-88
2022/10/30 06:18:22;;;;;;;1.08;1.00;;;;;;;;;;4933914;29;20031;-89
2022/10/30 06:20:48;;;;;;;1.80;1.65;;;;;;;;;;4929084;29;20035;-88
2022/10/30 06:23:14;;;;;;;3.90;2.92;;;;;;;;;;4944228;29;20031;-89
2022/10/30 06:25:39;;;;;;;4.20;2.95;;;;;;;;;;4927812;29;20028;-89
2022/10/30 06:28:05;;;;;;;3.15;2.75;;;;;;;;;;4953380;28;20110;-87
2022/10/30 06:30:31;;;;;;;3.97;3.33;;;;;;;;;;4949562;29;20110;-88
2022/10/30 06:32:57;;;;;;;5.53;2.55;;;;;;;;;;4936064;29;20472;-90
2022/10/30 06:35:23;;;;;;;4.93;2.60;;;;;;;;;;4945971;28;20027;-86
2022/10/30 06:37:48;;;;;;;4.20;1.73;;;;;;;;;;4934988;29;20079;-87
2022/10/30 06:40:15;;;;;;;4.80;2.42;;;;;;;;;;4933395;28;20031;-89
2022/10/30 06:42:48;;;;;;;3.67;2.20;;;;;;;;;;4932785;28;20424;-89
2022/10/30 06:45:14;;;;;;;3.28;2.65;;;;;;;;;;4933440;29;20090;-87
2022/10/30 06:47:40;;;;;;;3.45;2.58;;;;;;;;;;4930742;29;20023;-86
2022/10/30 06:50:08;;;;;;;3.13;2.30;;;;;;;;;;4952551;29;20071;-85
2022/10/30 06:52:34;;;;;;;5.43;3.33;;;;;;;;;;4951437;28;20043;-87
2022/10/30 06:54:59;;;;;;;5.35;2.85;;;;;;;;;;4952669;29;20027;-86
2022/10/30 06:57:25;;;;;;;5.03;2.75;;;;;;;;;;4952645;29;20483;-86
2022/10/30 06:59:51;;;;;;;5.00;3.15;;;;;;;;;;4945804;28;20043;-86
2022/10/30 07:02:16;;;;;;;8.10;3.95;;;;;;;;;;4955528;28;20034;-87
2022/10/30 07:04:42;;;;;;;4.20;2.58;;;;;;;;;;4956712;29;20038;-87
2022/10/30 07:07:07;;;;;;;5.05;3.55;;;;;;;;;;4954828;28;20027;-88
2022/10/30 07:09:32;;;;;;;4.93;3.80;;;;;;;;;;4932807;29;20417;-87
2022/10/30 07:11:58;;;;;;;6.03;4.65;;;;;;;;;;4952016;29;20511;-87
2022/10/30 07:14:24;;;;;;;10.25;4.05;;;;;;;;;;4951068;28;20036;-87
2022/10/30 07:16:49;;;;;;;13.95;4.15;;;;;;;;;;4949343;28;20507;-85
2022/10/30 07:19:14;;;;;;;5.88;3.97;;;;;;;;;;4949656;28;20042;-88
2022/10/30 07:21:40;;;;;;;5.63;4.18;;;;;;;;;;4952531;29;20051;-86
2022/10/30 07:24:06;;;;;;;8.35;5.10;;;;;;;;;;4943980;29;20073;-87
2022/10/30 07:26:32;;;;;;;8.30;4.55;;;;;;;;;;4951327;28;20055;-86
2022/10/30 07:28:58;;;;;;;4.47;3.75;;;;;;;;;;4946103;28;20074;-86
2022/10/30 07:31:23;;;;;;;8.27;5.43;;;;;;;;;;4955932;29;20023;-86
2022/10/30 07:33:49;;;;;;;8.50;4.75;;;;;;;;;;4955937;29;20019;-87
2022/10/30 07:36:14;;;;;;;4.63;3.67;;;;;;;;;;4933555;29;20030;-87
2022/10/30 07:38:40;;;;;;;4.07;3.33;;;;;;;;;;4952337;29;20027;-86
2022/10/30 07:41:06;;;;;;;5.70;3.63;;;;;;;;;;4928301;29;20027;-85
2022/10/30 07:43:31;;;;;;;7.70;4.85;;;;;;;;;;4954459;29;20499;-85
2022/10/30 07:45:57;;;;;;;11.90;6.75;;;;;;;;;;4955729;29;20424;-87
2022/10/30 07:48:22;;;;;;;7.65;5.18;;;;;;;;;;4955699;28;20042;-85
2022/10/30 07:50:47;;;;;;;5.60;4.32;;;;;;;;;;4947801;29;20023;-86
2022/10/30 07:53:13;;;;;;;6.05;3.80;;;;;;;;;;4929807;29;20024;-87
2022/10/30 07:55:40;;;;;;;10.25;3.55;;;;;;;;;;4955439;29;20519;-88
2022/10/30 07:58:05;;;;;;;7.50;4.35;;;;;;;;;;4936525;29;20042;-89
2022/10/30 08:00:31;;;;;;;5.45;3.65;;;;;;;;;;4954993;29;20031;-88
2022/10/30 08:02:57;;;;;;;7.22;4.38;;;;;;;;;;4940261;29;20031;-90
2022/10/30 09:03:15;;;;;;;25.80;16.27;;;;;;;;;;4937974;29;20047;-88
2022/10/30 09:05:41;;;;;;;38.80;16.90;;;;;;;;;;4924249;29;20036;-86
2022/10/30 09:08:06;;;;;;;14.30;8.70;;;;;;;;;;4938422;29;20035;-89
2022/10/30 09:10:31;;;;;;;5.85;3.67;;;;;;;;;;4936084;29;20032;-86
2022/10/30 09:12:58;;;;;;;5.53;3.70;;;;;;;;;;4940280;29;20028;-88
2022/10/30 09:15:25;;;;;;;5.53;3.97;;;;;;;;;;4943936;29;20031;-90
2022/10/30 09:17:58;;;;;;;6.40;4.28;;;;;;;;;;4946186;29;20087;-85
2022/10/30 09:20:24;;;;;;;4.75;3.40;;;;;;;;;;4960131;28;20506;-85
2022/10/30 09:22:50;;;;;;;5.07;3.50;;;;;;;;;;4941756;29;20024;-87
2022/10/30 09:25:15;;;;;;;6.68;4.07;;;;;;;;;;4946451;28;20034;-85
2022/10/30 09:27:41;;;;;;;7.82;4.45;;;;;;;;;;4943575;29;20034;-89
2022/10/30 09:30:07;;;;;;;5.45;3.67;;;;;;;;;;4938414;29;20059;-90
2022/10/30 09:32:33;;;;;;;7.20;4.75;;;;;;;;;;4942107;29;20027;-87
2022/10/30 09:34:58;;;;;;;5.70;3.80;;;;;;;;;;4940204;29;20503;-89
2022/10/30 09:37:23;;;;;;;5.63;3.85;;;;;;;;;;4941265;29;20038;-88
2022/10/30 09:39:49;;;;;;;6.72;4.45;;;;;;;;;;4941569;29;20024;-86
2022/10/30 09:42:41;;;;;;;6.30;4.68;;;;;;;;;;4935471;29;21086;-88
2022/10/30 09:45:23;;;;;;;17.45;4.05;;;;;;;;;;4941434;29;20058;-87
2022/10/30 09:48:07;;;;;;;6.93;4.65;;;;;;;;;;4936366;29;20499;-89
2022/10/30 09:50:59;;;;;;;4.75;3.70;;;;;;;;;;4937738;29;20471;-88
2022/10/30 09:53:44;;;;;;;6.45;4.30;;;;;;;;;;4933460;29;20468;-88
2022/10/30 09:56:30;;;;;;;43.30;24.33;;;;;;;;;;4940298;29;20059;-88
2022/10/30 09:59:14;;;;;;;15.88;9.48;;;;;;;;;;4938768;29;20034;-88
2022/10/30 10:01:45;;;;;;;7.18;4.70;;;;;;;;;;4937169;29;20052;-87
2022/10/30 10:04:16;;;;;;;9.68;4.63;;;;;;;;;;4946285;29;20038;-87
2022/10/30 10:06:45;;;;;;;6.57;4.80;;;;;;;;;;4941643;29;20127;-88
2022/10/30 10:09:23;;;;;;;5.18;3.42;;;;;;;;;;4939235;29;20062;-89
2022/10/30 10:12:00;;;;;;;5.57;3.20;;;;;;;;;;4944911;29;20106;-85
2022/10/30 10:14:33;;;;;;;4.63;3.60;;;;;;;;;;4935097;29;20080;-86
2022/10/30 10:17:03;;;;;;;11.10;3.47;;;;;;;;;;4935740;29;20050;-86
2022/10/30 10:19:54;;;;;;;6.30;4.05;;;;;;;;;;4939790;29;20024;-86
2022/10/30 10:22:24;;;;;;;6.07;3.40;;;;;;;;;;4946172;29;20035;-86
2022/10/30 10:24:52;;;;;;;5.93;3.45;;;;;;;;;;4940874;29;20044;-86
2022/10/30 10:27:35;;;;;;;7.13;4.03;;;;;;;;;;4945327;29;20031;-86
2022/10/30 10:30:21;;;;;;;5.78;3.45;;;;;;;;;;4942075;29;20031;-86
2022/10/30 10:33:02;;;;;;;7.78;3.42;;;;;;;;;;4933759;29;20086;-86
2022/10/30 10:35:30;;;;;;;4.47;3.08;;;;;;;;;;4938939;29;20451;-86
2022/10/30 10:37:56;;;;;;;3.88;2.60;;;;;;;;;;4943548;29;20137;-86
2022/10/30 10:40:27;;;;;;;7.05;3.08;;;;;;;;;;4946332;29;20440;-86
2022/10/30 10:43:10;;;;;;;4.30;2.80;;;;;;;;;;4942046;29;20032;-86
2022/10/30 10:46:18;;;;;;;6.50;3.40;;;;;;;;;;4946530;29;20063;-87
2022/10/30 10:49:11;;;;;;;4.90;2.72;;;;;;;;;;4945815;29;20039;-86
2022/10/30 10:51:44;;;;;;;3.85;2.25;;;;;;;;;;4945262;29;20027;-87
2022/10/30 10:54:15;;;;;;;3.63;2.20;;;;;;;;;;4940423;29;20493;-86
2022/10/30 10:56:48;;;;;;;4.15;2.72;;;;;;;;;;4944832;29;20031;-86
2022/10/30 10:59:16;;;;;;;3.38;2.45;;;;;;;;;;4947561;29;20059;-89
2022/10/30 11:01:48;;;;;;;3.63;2.15;;;;;;;;;;4944109;29;20523;-89
2022/10/30 11:04:37;;;;;;;10.95;2.25;;;;;;;;;;4949189;29;20517;-88
2022/10/30 11:07:17;;;;;;;3.15;2.00;;;;;;;;;;4945809;29;20036;-90
2022/10/30 11:09:43;;;;;;;2.90;2.10;;;;;;;;;;4944084;29;20472;-90
2022/10/30 11:12:09;;;;;;;3.15;1.45;;;;;;;;;;4950099;29;20056;-87
2022/10/30 11:14:36;;;;;;;3.00;1.80;;;;;;;;;;4946676;29;20067;-88
2022/10/30 11:17:18;;;;;;;2.55;1.65;;;;;;;;;;4947921;29;20063;-87
2022/10/30 11:19:47;;;;;;;7.28;2.63;;;;;;;;;;4940140;29;20102;-86
2022/10/30 11:22:22;;;;;;;3.72;2.05;;;;;;;;;;4939307;29;20031;-88
2022/10/30 11:24:47;;;;;;;4.32;1.38;;;;;;;;;;4941510;29;20066;-86
2022/10/30 11:27:21;;;;;;;4.07;1.90;;;;;;;;;;4942310;29;20063;-86
2022/10/30 11:29:59;;;;;;;2.45;1.65;;;;;;;;;;4947018;29;20031;-87
2022/10/30 11:32:30;;;;;;;1.90;1.30;;;;;;;;;;4957231;28;20496;-85
2022/10/30 11:35:01;;;;;;;2.72;1.42;;;;;;;;;;4946145;29;20106;-88
2022/10/30 11:37:32;;;;;;;3.67;2.08;;;;;;;;;;4961041;28;20050;-86
2022/10/30 11:40:08;;;;;;;2.25;1.67;;;;;;;;;;4945844;29;20032;-85
2022/10/30 11:42:35;;;;;;;3.10;1.42;;;;;;;;;;4941276;29;20118;-86
2022/10/30 11:45:01;;;;;;;2.35;1.40;;;;;;;;;;4943191;29;20067;-87
2022/10/30 11:47:33;;;;;;;2.65;1.35;;;;;;;;;;4946955;28;20031;-87
2022/10/30 11:50:02;;;;;;;2.13;1.55;;;;;;;;;;4942422;29;20040;-86
2022/10/30 11:52:28;;;;;;;3.03;1.43;;;;;;;;;;4944788;29;20027;-84
2022/10/30 11:55:16;;;;;;;2.13;1.13;;;;;;;;;;4943147;29;20341;-88
2022/10/30 11:57:45;;;;;;;1.63;1.35;;;;;;;;;;4934566;29;20373;-86
2022/10/30 12:00:18;;;;;;;2.00;1.38;;;;;;;;;;4943435;29;20372;-85
2022/10/30 12:02:47;;;;;;;1.92;1.10;;;;;;;;;;4940675;29;20134;-85
2022/10/30 12:05:24;;;;;;;3.05;1.40;;;;;;;;;;4946118;29;20110;-87
2022/10/30 12:08:13;;;;;;;0.90;0.77;;;;;;;;;;4945363;29;20033;-86
2022/10/30 12:10:53;;;;;;;1.17;1.08;;;;;;;;;;4934724;28;20039;-87
2022/10/30 12:13:20;;;;;;;2.35;1.25;;;;;;;;;;4940760;29;20023;-86
2022/10/30 12:15:49;;;;;;;1.95;1.13;;;;;;;;;;4938342;29;20087;-86
2022/10/30 12:18:20;;;;;;;1.48;0.93;;;;;;;;;;4938652;29;20481;-90
2022/10/30 12:20:50;;;;;;;1.50;1.08;;;;;;;;;;4943272;29;20130;-87
2022/10/30 12:23:16;;;;;;;;;;;;;;;;;;4944509;29;20024;-88
2022/10/30 12:25:46;;;;;;;1.58;1.10;;;;;;;;;;4945893;29;19918;-86
2022/10/30 12:28:18;;;;;;;2.75;1.08;;;;;;;;;;4942627;29;20082;-83
2022/10/30 12:30:54;;;;;;;2.00;1.02;;;;;;;;;;4941360;29;20034;-89
2022/10/30 12:33:32;;;;;;;2.85;1.35;;;;;;;;;;4940094;29;20110;-86
2022/10/30 12:36:00;;;;;;;0.90;0.90;;;;;;;;;;4954387;29;20027;-88
2022/10/30 12:38:43;;;;;;;1.15;0.95;;;;;;;;;;4943748;29;20117;-85
2022/10/30 12:41:15;;;;;;;1.10;0.85;;;;;;;;;;4949121;29;20027;-85
2022/10/30 12:43:48;;;;;;;1.40;0.93;;;;;;;;;;4938946;29;20071;-87
2022/10/30 12:46:32;;;;;;;1.92;1.05;;;;;;;;;;4933672;29;20098;-88
2022/10/30 12:49:17;;;;;;;2.13;1.25;;;;;;;;;;4946889;29;20519;-88
2022/10/30 12:51:55;;;;;;;2.75;1.08;;;;;;;;;;4938765;29;20429;-84
2022/10/30 12:54:42;;;;;;;3.97;0.95;;;;;;;;;;4934307;29;20550;-86
2022/10/30 12:57:16;;;;;;;1.48;1.30;;;;;;;;;;4954793;28;20031;-87
2022/10/30 12:59:55;;;;;;;1.10;0.93;;;;;;;;;;4935765;29;20040;-86
2022/10/30 13:02:42;;;;;;;1.33;1.00;;;;;;;;;;4944590;29;20066;-86
2022/10/30 13:05:41;;;;;;;2.70;1.27;;;;;;;;;;4946505;29;20293;-88
2022/10/30 13:08:35;;;;;;;2.75;1.48;;;;;;;;;;4928412;29;20027;-86
2022/10/30 13:11:20;;;;;;;2.75;1.27;;;;;;;;;;4935128;29;20035;-88
2022/10/30 13:13:49;;;;;;;1.10;0.77;;;;;;;;;;4942449;29;20027;-89
2022/10/30 13:16:21;;;;;;;2.53;1.00;;;;;;;;;;4939096;29;20083;-85
2022/10/30 13:18:46;;;;;;;1.83;1.27;;;;;;;;;;4944554;29;20480;-86
2022/10/30 13:21:52;;;;;;;2.65;1.17;;;;;;;;;;4938460;29;20042;-87
2022/10/30 13:24:46;;;;;;;2.40;1.02;;;;;;;;;;4932059;29;20083;-90
2022/10/30 13:27:20;;;;;;;1.42;0.77;;;;;;;;;;4934497;28;20040;-87
2022/10/30 13:30:00;;;;;;;3.63;2.03;;;;;;;;;;4944262;29;20388;-88
2022/10/30 13:32:52;;;;;;;1.98;1.23;;;;;;;;;;4939637;29;20023;-87
2022/10/30 13:35:39;;;;;;;5.90;2.38;;;;;;;;;;4942288;29;20055;-88
2022/10/30 13:38:36;;;;;;;2.05;1.33;;;;;;;;;;4937732;29;20114;-86
2022/10/30 13:41:23;;;;;;;4.45;2.00;;;;;;;;;;4953794;28;20398;-85
2022/10/30 13:44:15;;;;;;;2.47;1.65;;;;;;;;;;4942255;29;20038;-85
2022/10/30 13:46:43;;;;;;;2.70;1.20;;;;;;;;;;4942190;29;20115;-88
2022/10/30 13:49:33;;;;;;;2.65;0.85;;;;;;;;;;4943439;29;20027;-87
2022/10/30 13:52:02;;;;;;;1.48;1.25;;;;;;;;;;4939564;29;20460;-88
2022/10/30 13:54:36;;;;;;;1.65;1.17;;;;;;;;;;4940266;29;20110;-86
2022/10/30 13:57:15;;;;;;;2.35;1.20;;;;;;;;;;4937354;29;20395;-86
2022/10/30 13:59:59;;;;;;;2.75;1.10;;;;;;;;;;4937799;29;20027;-89
2022/10/30 14:02:50;;;;;;;2.25;1.33;;;;;;;;;;4941978;29;20047;-86
2022/10/30 14:05:35;;;;;;;1.23;0.77;;;;;;;;;;4941567;29;20030;-84
2022/10/30 14:08:06;;;;;;;1.80;1.35;;;;;;;;;;4940603;29;20511;-86
2022/10/30 14:10:48;;;;;;;1.90;0.57;;;;;;;;;;4936964;29;20031;-87
2022/10/30 14:13:14;;;;;;;1.95;0.77;;;;;;;;;;4940050;29;20027;-88
2022/10/30 14:15:40;;;;;;;1.10;0.52;;;;;;;;;;4934455;29;20476;-88
2022/10/30 14:18:12;;;;;;;3.90;1.10;;;;;;;;;;4943685;29;20099;-86
2022/10/30 14:20:45;;;;;;;0.90;0.65;;;;;;;;;;4943331;29;20074;-86
2022/10/30 14:23:18;;;;;;;1.40;1.13;;;;;;;;;;4952286;28;20385;-85
2022/10/30 14:26:09;;;;;;;2.55;0.90;;;;;;;;;;4945993;29;20031;-85
2022/10/30 14:28:54;;;;;;;2.88;1.27;;;;;;;;;;4942026;29;20057;-86
2022/10/30 14:31:32;;;;;;;3.22;0.90;;;;;;;;;;4939519;29;20043;-84
2022/10/30 14:33:59;;;;;;;1.13;0.90;;;;;;;;;;4945304;29;20027;-86
2022/10/30 14:36:36;;;;;;;2.83;1.23;;;;;;;;;;4943520;29;20476;-86
2022/10/30 14:39:07;;;;;;;1.70;1.05;;;;;;;;;;4937233;29;20038;-85
2022/10/30 14:41:52;;;;;;;1.40;0.80;;;;;;;;;;4935117;29;20039;-86
2022/10/30 14:44:39;;;;;;;4.30;1.00;;;;;;;;;;4940409;29;20147;-83
2022/10/30 14:47:28;;;;;;;1.70;0.90;;;;;;;;;;4940097;29;20408;-86
2022/10/30 14:50:12;;;;;;;4.45;2.40;;;;;;;;;;4937132;29;20023;-84
2022/10/30 14:53:22;;;;;;;3.40;1.45;;;;;;;;;;4940043;29;20031;-85
2022/10/30 14:56:22;;;;;;;1.52;1.10;;;;;;;;;;4925096;29;20039;-86
2022/10/30 14:59:09;;;;;;;2.25;1.38;;;;;;;;;;4940961;29;20082;-87
2022/10/30 15:01:48;;;;;;;1.85;0.90;;;;;;;;;;4941522;29;20044;-86
2022/10/30 15:04:18;;;;;;;1.40;0.80;;;;;;;;;;4941302;29;20035;-87
2022/10/30 15:07:14;;;;;;;0.75;0.70;;;;;;;;;;4941251;29;20486;-86
2022/10/30 15:09:58;;;;;;;2.80;1.13;;;;;;;;;;4942195;29;20098;-88
2022/10/30 15:12:46;;;;;;;2.28;1.17;;;;;;;;;;4940408;29;20031;-89
2022/10/30 15:15:15;;;;;;;2.05;1.00;;;;;;;;;;4926797;29;20039;-87
2022/10/30 15:17:44;;;;;;;1.33;1.05;;;;;;;;;;4938499;29;20472;-89
2022/10/30 15:20:25;;;;;;;1.67;1.02;;;;;;;;;;4945402;29;20027;-88
2022/10/30 15:23:17;;;;;;;3.40;1.02;;;;;;;;;;4938670;29;20071;-88
2022/10/30 15:25:49;;;;;;;1.27;0.68;;;;;;;;;;4934321;29;20051;-85
2022/10/30 15:28:21;;;;;;;0.65;0.60;;;;;;;;;;4941327;29;20221;-86
2022/10/30 15:31:06;;;;;;;1.38;1.00;;;;;;;;;;4942057;29;20469;-85
2022/10/30 15:33:36;;;;;;;1.83;0.90;;;;;;;;;;4946327;29;20506;-85
2022/10/30 15:36:03;;;;;;;6.25;1.23;;;;;;;;;;4941774;29;20179;-85
2022/10/30 15:38:28;;;;;;;2.45;1.33;;;;;;;;;;4942307;29;20035;-84
2022/10/30 15:41:12;;;;;;;1.92;0.90;;;;;;;;;;4947994;29;20056;-85
2022/10/30 15:43:41;;;;;;;1.00;0.70;;;;;;;;;;4938976;29;20023;-85
2022/10/30 15:46:11;;;;;;;1.13;0.80;;;;;;;;;;4959319;28;20031;-87
2022/10/30 15:48:44;;;;;;;1.90;1.38;;;;;;;;;;4951150;29;20035;-86
2022/10/30 15:51:23;;;;;;;3.97;1.52;;;;;;;;;;4944665;29;20027;-86
2022/10/30 15:53:52;;;;;;;1.23;0.70;;;;;;;;;;4946649;29;20027;-87
2022/10/30 15:56:36;;;;;;;1.20;0.93;;;;;;;;;;4958012;28;20032;-88
2022/10/30 15:59:05;;;;;;;0.80;0.70;;;;;;;;;;4943015;29;20040;-88
2022/10/30 16:01:45;;;;;;;1.60;0.80;;;;;;;;;;4946300;29;20070;-86
2022/10/30 16:04:30;;;;;;;3.92;1.85;;;;;;;;;;4946022;29;20034;-87
2022/10/30 16:07:03;;;;;;;1.40;0.70;;;;;;;;;;4959430;28;20038;-89